Terminal Aerodrome Forecast
Issued by NWS

Current Version | Previous Version | Text Only | Print | Product List | Glossary On
Versions: 1 2 3 4 5 6 7 8 9 10 11 12 13 14 15 16 17 18 19 20 21 22 23 24 25 26 27 28 29 30 31 32
364
FTUS45 KBOI 041139
TAFTWF
TAF
KTWF 041139Z 0412/0512 21012KT P6SM OVC080
     FM041900 22012KT P6SM -RA OVC035
     FM050100 23015G25KT 6SM -RASN BR OVC025
     FM050700 25015G25KT 6SM -SN BR OVC020=

USA.gov is the U.S. government's official web portal to all federal, state and local government web resources and services.